Time;durP1;ratioP1;P1;durP2;ratioP2;P2;SDS_P1;SDS_P2;PMS_P1;PMS_P2;Temp;Humidity;BMP_temperature;BMP_pressure;BME280_temperature;BME280_humidity;BME280_pressure;Samples;Min_cycle;Max_cycle;Signal;HPM_P1;HPM_P2
2021/01/19 00:01:26;;;;;;;22.70;11.40;;;5.10;99.90;;;;;;4990805;28;20531;-49
2021/01/19 00:03:53;;;;;;;19.37;12.33;;;5.00;99.90;;;;;;4993214;28;21361;-50
2021/01/19 00:06:23;;;;;;;21.03;12.03;;;5.10;99.90;;;;;;5013803;28;20512;-50
2021/01/19 00:08:50;;;;;;;24.57;12.40;;;5.10;99.90;;;;;;5016370;28;20490;-49
2021/01/19 00:11:18;;;;;;;18.47;12.67;;;5.10;99.90;;;;;;5014865;28;20878;-50
2021/01/19 00:13:45;;;;;;;22.87;12.73;;;5.10;99.90;;;;;;5029284;28;20471;-51
2021/01/19 00:16:12;;;;;;;21.27;12.77;;;5.10;99.90;;;;;;5006993;28;20555;-50
2021/01/19 00:18:43;;;;;;;22.93;13.57;;;5.10;99.90;;;;;;5010150;28;20517;-50
2021/01/19 00:21:11;;;;;;;23.67;14.23;;;5.00;99.90;;;;;;5010478;28;20472;-49
2021/01/19 00:23:38;;;;;;;19.73;13.37;;;5.10;99.90;;;;;;5010081;28;20563;-50
2021/01/19 00:26:06;;;;;;;22.97;13.10;;;5.10;99.90;;;;;;5010254;28;21036;-49
2021/01/19 00:28:34;;;;;;;22.07;15.27;;;5.10;99.90;;;;;;5009746;28;20545;-49
2021/01/19 00:31:02;;;;;;;22.40;13.53;;;5.10;99.90;;;;;;5010345;28;20546;-49
2021/01/19 00:33:30;;;;;;;22.60;13.30;;;5.00;99.90;;;;;;5009723;28;20493;-50
2021/01/19 00:36:01;;;;;;;21.53;14.40;;;5.00;99.90;;;;;;5006351;28;20534;-50
2021/01/19 00:38:29;;;;;;;26.03;15.00;;;5.00;99.90;;;;;;5016921;28;21007;-49
2021/01/19 00:40:56;;;;;;;27.10;15.70;;;5.00;99.90;;;;;;5010213;28;20487;-49
2021/01/19 00:43:23;;;;;;;21.20;15.93;;;4.90;99.90;;;;;;5009531;28;20498;-49
2021/01/19 00:45:51;;;;;;;23.53;15.30;;;5.00;99.90;;;;;;4993191;28;20512;-49
2021/01/19 00:48:18;;;;;;;25.83;15.77;;;4.90;99.90;;;;;;4990446;28;20550;-49
2021/01/19 00:50:46;;;;;;;22.10;15.60;;;5.00;99.90;;;;;;4990080;28;20480;-49
2021/01/19 00:53:14;;;;;;;25.27;15.70;;;5.00;99.90;;;;;;4990483;28;20491;-49
2021/01/19 00:55:41;;;;;;;24.77;16.90;;;5.00;99.90;;;;;;4989751;28;20570;-49
2021/01/19 00:58:10;;;;;;;26.40;16.07;;;5.00;99.90;;;;;;4988893;28;20968;-49
2021/01/19 01:00:39;;;;;;;25.00;15.80;;;5.00;99.90;;;;;;5004733;28;20552;-49
2021/01/19 01:03:07;;;;;;;24.73;16.50;;;5.00;99.90;;;;;;4994654;28;20496;-49
2021/01/19 01:05:35;;;;;;;25.90;17.33;;;4.90;99.90;;;;;;5014274;28;20489;-49
2021/01/19 01:08:02;;;;;;;24.13;16.33;;;5.00;99.90;;;;;;5013587;28;20477;-49
2021/01/19 01:10:30;;;;;;;23.07;16.40;;;4.90;99.90;;;;;;5028688;28;20566;-50
2021/01/19 01:12:58;;;;;;;26.90;16.40;;;4.90;99.90;;;;;;5019208;28;20510;-50
2021/01/19 01:15:31;;;;;;;25.47;17.47;;;4.90;99.90;;;;;;4993711;28;20515;-50
2021/01/19 01:17:59;;;;;;;29.40;16.80;;;4.80;99.90;;;;;;4989646;28;20488;-49
2021/01/19 01:20:44;;;;;;;24.93;17.87;;;4.80;99.90;;;;;;4988730;28;20469;-50
2021/01/19 01:23:14;;;;;;;25.13;16.27;;;4.80;99.90;;;;;;4999607;28;20547;-50
2021/01/19 01:25:44;;;;;;;24.17;16.47;;;4.80;99.90;;;;;;5010151;28;20562;-51
2021/01/19 01:28:11;;;;;;;25.67;16.93;;;4.80;99.90;;;;;;5017424;28;21064;-49
2021/01/19 01:30:41;;;;;;;26.17;17.50;;;4.80;99.90;;;;;;5007446;28;20727;-49
2021/01/19 01:33:09;;;;;;;30.50;18.23;;;4.70;99.90;;;;;;5017487;28;20860;-49
2021/01/19 01:35:36;;;;;;;29.33;17.47;;;4.80;99.90;;;;;;5028700;28;20269;-49
2021/01/19 01:38:05;;;;;;;24.33;17.43;;;4.80;99.90;;;;;;5028581;28;20489;-49
2021/01/19 01:40:33;;;;;;;26.27;17.17;;;4.70;99.90;;;;;;5028432;28;20471;-49
2021/01/19 01:43:14;;;;;;;24.17;16.90;;;4.70;99.90;;;;;;5017603;28;20480;-50
2021/01/19 01:45:42;;;;;;;25.13;17.33;;;4.70;99.90;;;;;;4990787;28;20504;-49
2021/01/19 01:48:11;;;;;;;25.50;17.87;;;4.80;99.90;;;;;;4989207;28;20880;-49
2021/01/19 01:50:39;;;;;;;32.23;17.73;;;4.70;99.90;;;;;;4989196;28;20859;-49
2021/01/19 01:53:07;;;;;;;24.77;17.67;;;4.70;99.90;;;;;;4997753;28;20976;-50
2021/01/19 01:55:37;;;;;;;30.33;18.37;;;4.80;99.90;;;;;;5008604;28;20534;-50
2021/01/19 01:58:06;;;;;;;28.03;17.97;;;4.70;99.90;;;;;;5008450;28;20575;-49
2021/01/19 02:00:33;;;;;;;28.73;19.23;;;4.70;99.90;;;;;;5006044;28;20583;-49
2021/01/19 02:03:00;;;;;;;31.60;19.80;;;4.70;99.90;;;;;;5005230;28;21198;-49
2021/01/19 02:05:28;;;;;;;34.73;20.10;;;4.70;99.90;;;;;;5010761;28;20565;-49
2021/01/19 02:08:10;;;;;;;32.47;20.83;;;4.70;99.90;;;;;;5021135;28;20474;-49
2021/01/19 02:10:53;;;;;;;27.63;19.53;;;4.70;99.90;;;;;;5017597;28;20490;-49
2021/01/19 02:13:35;;;;;;;29.40;20.07;;;4.70;99.90;;;;;;5007762;28;20505;-49
2021/01/19 02:16:15;;;;;;;36.67;22.90;;;4.70;99.90;;;;;;5008179;28;20263;-49
2021/01/19 02:18:53;;;;;;;32.70;21.50;;;4.80;99.90;;;;;;5008207;28;20555;-49
2021/01/19 02:21:58;;;;;;;34.77;22.70;;;4.70;99.90;;;;;;5007613;28;20518;-49
2021/01/19 02:24:34;;;;;;;34.67;21.43;;;4.70;99.90;;;;;;5006255;28;20490;-49
2021/01/19 02:27:47;;;;;;;32.97;22.00;;;4.60;99.90;;;;;;5013039;28;20483;-49
2021/01/19 02:30:31;;;;;;;31.03;20.67;;;4.60;99.90;;;;;;5008056;28;20871;-49
2021/01/19 02:33:05;;;;;;;39.17;24.50;;;4.60;99.90;;;;;;5005986;28;20578;-49
2021/01/19 02:35:46;;;;;;;34.37;23.73;;;4.70;99.90;;;;;;5007959;28;20560;-49
2021/01/19 02:38:25;;;;;;;34.67;23.43;;;4.70;99.90;;;;;;5008134;28;20561;-50
2021/01/19 02:40:54;;;;;;;34.77;23.50;;;4.60;99.90;;;;;;5008011;28;20503;-50
2021/01/19 02:43:25;;;;;;;38.60;25.67;;;4.60;99.90;;;;;;5013281;28;21038;-49
2021/01/19 02:45:54;;;;;;;37.13;24.50;;;4.60;99.90;;;;;;5021641;28;20513;-49
2021/01/19 02:48:23;;;;;;;36.77;25.57;;;4.70;99.90;;;;;;5027240;28;20486;-49
2021/01/19 02:50:50;;;;;;;38.30;26.13;;;4.70;99.90;;;;;;5027645;28;20505;-50
2021/01/19 02:53:19;;;;;;;39.57;25.37;;;4.60;99.90;;;;;;5027180;28;20564;-50
2021/01/19 02:55:47;;;;;;;39.43;26.43;;;4.70;99.90;;;;;;5027662;28;20483;-49
2021/01/19 02:58:48;;;;;;;40.07;28.23;;;4.60;99.90;;;;;;5026007;28;20467;-50
2021/01/19 03:01:22;;;;;;;41.53;28.07;;;4.60;99.90;;;;;;4988150;28;20997;-49
2021/01/19 03:03:51;;;;;;;39.73;27.77;;;4.60;99.90;;;;;;5007478;28;20248;-49
2021/01/19 03:06:21;;;;;;;46.73;30.07;;;4.70;99.90;;;;;;5023780;28;20515;-49
2021/01/19 03:08:50;;;;;;;43.33;29.77;;;4.70;99.90;;;;;;5007936;28;21062;-49
2021/01/19 03:11:19;;;;;;;47.23;30.57;;;4.70;99.90;;;;;;5007618;28;20511;-49
2021/01/19 03:13:48;;;;;;;42.37;29.87;;;4.60;99.90;;;;;;5003642;28;21032;-49
2021/01/19 03:16:16;;;;;;;46.53;30.17;;;4.70;99.90;;;;;;4991160;28;20511;-49
2021/01/19 03:18:46;;;;;;;45.07;30.40;;;4.70;99.90;;;;;;5011973;28;20823;-49
2021/01/19 03:21:14;;;;;;;41.47;31.63;;;4.70;99.90;;;;;;5009849;28;20826;-49
2021/01/19 03:23:42;;;;;;;43.63;29.67;;;4.70;99.90;;;;;;5006996;28;20969;-49
2021/01/19 03:26:09;;;;;;;43.93;30.27;;;4.70;99.90;;;;;;5007500;28;20553;-49
2021/01/19 03:28:37;;;;;;;47.70;31.87;;;4.80;99.90;;;;;;5009075;28;20503;-49
2021/01/19 03:31:05;;;;;;;43.93;30.73;;;4.80;99.90;;;;;;5011501;28;20566;-50
2021/01/19 03:33:33;;;;;;;45.37;31.03;;;4.80;99.90;;;;;;5010998;28;20500;-49
2021/01/19 03:36:00;;;;;;;42.23;28.90;;;4.90;99.90;;;;;;5019519;28;20529;-49
2021/01/19 03:38:29;;;;;;;40.03;27.60;;;4.80;99.90;;;;;;5007795;28;20513;-49
2021/01/19 03:40:56;;;;;;;51.43;32.40;;;4.90;99.90;;;;;;5011175;28;20533;-49
2021/01/19 03:43:24;;;;;;;48.97;32.10;;;4.80;99.90;;;;;;5010449;28;20475;-49
2021/01/19 03:45:51;;;;;;;41.87;29.77;;;4.70;99.90;;;;;;5010676;28;21079;-49
2021/01/19 03:48:18;;;;;;;46.47;31.67;;;4.70;99.90;;;;;;5010854;28;20532;-49
2021/01/19 03:50:45;;;;;;;43.20;31.53;;;4.60;99.90;;;;;;5011183;28;20603;-49
2021/01/19 03:53:13;;;;;;;44.57;29.80;;;4.60;99.90;;;;;;5010656;28;20893;-51
2021/01/19 03:55:41;;;;;;;43.30;30.57;;;4.70;99.90;;;;;;5008716;28;20475;-49
2021/01/19 03:58:09;;;;;;;44.03;31.30;;;4.70;99.90;;;;;;5016936;28;20482;-49
2021/01/19 04:00:37;;;;;;;46.87;31.33;;;4.70;99.90;;;;;;5015983;28;20568;-49
2021/01/19 04:03:04;;;;;;;46.03;32.13;;;4.60;99.90;;;;;;5027760;28;20568;-49
2021/01/19 04:05:32;;;;;;;46.10;30.77;;;4.60;99.90;;;;;;5022986;28;20639;-49
2021/01/19 04:07:59;;;;;;;40.53;29.40;;;4.60;99.90;;;;;;5010447;28;20318;-49
2021/01/19 04:10:26;;;;;;;44.13;29.77;;;4.60;99.90;;;;;;5010417;28;20240;-50
2021/01/19 04:12:55;;;;;;;42.07;28.97;;;4.70;99.90;;;;;;5009337;28;20962;-49
2021/01/19 04:15:22;;;;;;;44.80;29.63;;;4.60;99.90;;;;;;4991071;28;20481;-49
2021/01/19 04:17:49;;;;;;;41.80;29.00;;;4.60;99.90;;;;;;4998512;28;20244;-50
2021/01/19 04:20:17;;;;;;;39.30;27.63;;;4.60;99.90;;;;;;5010344;28;20487;-49
2021/01/19 04:22:44;;;;;;;42.13;29.57;;;4.60;99.90;;;;;;5009973;28;20908;-50
2021/01/19 04:25:12;;;;;;;38.77;27.83;;;4.60;99.90;;;;;;5011574;28;21029;-49
2021/01/19 04:27:39;;;;;;;36.77;25.87;;;4.60;99.90;;;;;;5021875;28;20707;-49
2021/01/19 04:30:09;;;;;;;42.90;27.53;;;4.70;99.90;;;;;;5030430;28;20271;-49
2021/01/19 04:32:37;;;;;;;40.40;24.83;;;4.60;99.90;;;;;;5029603;28;20933;-49
2021/01/19 04:35:07;;;;;;;33.67;24.80;;;4.50;99.90;;;;;;5019615;28;20478;-49
2021/01/19 04:37:34;;;;;;;34.00;23.43;;;4.50;99.90;;;;;;5010276;28;20827;-49
2021/01/19 04:40:04;;;;;;;34.67;24.03;;;4.50;99.90;;;;;;5010528;28;20540;-49
2021/01/19 04:42:34;;;;;;;32.33;23.17;;;4.50;99.90;;;;;;5010103;28;20491;-50
2021/01/19 04:45:03;;;;;;;33.27;25.17;;;4.50;99.90;;;;;;4992805;28;20543;-49
2021/01/19 04:47:33;;;;;;;36.60;25.30;;;4.50;99.90;;;;;;4990204;28;20569;-49
2021/01/19 04:50:03;;;;;;;32.73;24.57;;;4.40;99.90;;;;;;5012947;28;20576;-49
2021/01/19 04:52:32;;;;;;;37.33;26.60;;;4.40;99.90;;;;;;5018070;28;20527;-49
2021/01/19 04:55:07;;;;;;;33.10;24.07;;;4.40;99.90;;;;;;5007801;28;20534;-49
2021/01/19 04:57:38;;;;;;;38.40;25.53;;;4.50;99.90;;;;;;5007891;28;20804;-49
2021/01/19 05:00:10;;;;;;;36.80;25.13;;;4.50;99.90;;;;;;5020127;28;21002;-49
2021/01/19 05:03:18;;;;;;;33.13;25.00;;;4.40;99.90;;;;;;5025632;28;20922;-49
2021/01/19 05:06:00;;;;;;;35.77;25.00;;;4.40;99.90;;;;;;5001336;28;20513;-49
2021/01/19 05:08:56;;;;;;;37.43;26.67;;;4.40;99.90;;;;;;5009064;28;20891;-49
2021/01/19 05:11:29;;;;;;;38.20;25.43;;;4.40;99.90;;;;;;5009359;28;20510;-49
2021/01/19 05:14:04;;;;;;;34.50;24.23;;;4.40;99.90;;;;;;5006918;28;21031;-49
2021/01/19 05:16:34;;;;;;;33.83;24.70;;;4.40;99.90;;;;;;5024851;28;20475;-49
2021/01/19 05:19:05;;;;;;;34.60;24.17;;;4.40;99.90;;;;;;5028785;28;20520;-49
2021/01/19 05:21:37;;;;;;;30.20;23.57;;;4.40;99.90;;;;;;5025127;28;20474;-49
2021/01/19 05:24:05;;;;;;;33.57;24.70;;;4.40;99.90;;;;;;4989676;28;20533;-49
2021/01/19 05:26:34;;;;;;;32.93;23.57;;;4.40;99.90;;;;;;4989271;28;20559;-49
2021/01/19 05:29:05;;;;;;;31.60;20.93;;;4.40;99.90;;;;;;4989698;28;20498;-49
2021/01/19 05:31:33;;;;;;;30.33;22.07;;;4.40;99.90;;;;;;4989383;28;20510;-49
2021/01/19 05:34:10;;;;;;;31.67;22.13;;;4.40;99.90;;;;;;4989420;28;20580;-49
2021/01/19 05:36:42;;;;;;;28.33;21.43;;;4.50;99.90;;;;;;4989413;28;20487;-49
2021/01/19 05:39:15;;;;;;;25.17;19.07;;;4.50;99.90;;;;;;4988848;28;20477;-49
2021/01/19 05:41:45;;;;;;;26.73;19.67;;;4.50;99.90;;;;;;5003744;28;20970;-49
2021/01/19 05:44:17;;;;;;;25.53;17.40;;;4.50;99.90;;;;;;5006050;28;20479;-49
2021/01/19 05:46:49;;;;;;;23.90;18.53;;;4.40;99.90;;;;;;4997121;28;20534;-49
2021/01/19 05:49:20;;;;;;;22.57;17.23;;;4.40;99.90;;;;;;4996049;28;20487;-49
2021/01/19 05:51:50;;;;;;;23.07;17.13;;;4.40;99.90;;;;;;5004731;28;20482;-49
2021/01/19 05:54:26;;;;;;;23.20;16.63;;;4.40;99.90;;;;;;5001360;28;20517;-49
2021/01/19 05:57:07;;;;;;;23.40;17.67;;;4.50;99.90;;;;;;5002796;28;20502;-49
2021/01/19 05:59:39;;;;;;;21.03;17.10;;;4.40;99.90;;;;;;5016511;28;20542;-49
2021/01/19 06:02:12;;;;;;;25.03;17.73;;;4.40;99.90;;;;;;5006051;28;21012;-49
2021/01/19 06:04:47;;;;;;;20.27;16.20;;;4.40;99.90;;;;;;5005083;28;20491;-49
2021/01/19 06:07:16;;;;;;;21.80;16.10;;;4.40;99.90;;;;;;5006080;28;20991;-49
2021/01/19 06:09:45;;;;;;;20.27;16.87;;;4.40;99.90;;;;;;5005408;28;20985;-50
2021/01/19 06:12:13;;;;;;;21.10;16.77;;;4.40;99.90;;;;;;5005493;28;20481;-51
2021/01/19 06:14:46;;;;;;;19.27;15.97;;;4.40;99.90;;;;;;5005082;28;21057;-49
2021/01/19 06:17:16;;;;;;;21.33;16.20;;;4.40;99.90;;;;;;5005310;28;20479;-50
2021/01/19 06:19:44;;;;;;;18.07;15.53;;;4.30;99.90;;;;;;5005214;28;21109;-49
2021/01/19 06:22:14;;;;;;;22.63;17.27;;;4.30;99.90;;;;;;5002365;28;20527;-50
2021/01/19 06:24:43;;;;;;;21.67;16.33;;;4.30;99.90;;;;;;5004854;28;20506;-49
2021/01/19 06:27:26;;;;;;;23.23;17.27;;;4.30;99.90;;;;;;5005498;28;20541;-50
2021/01/19 06:30:15;;;;;;;25.43;18.43;;;4.40;99.90;;;;;;5005158;28;20553;-49
2021/01/19 06:32:48;;;;;;;23.40;20.57;;;4.50;99.90;;;;;;5004140;28;20503;-49
2021/01/19 06:35:20;;;;;;;28.37;21.30;;;4.30;99.90;;;;;;5005817;28;20577;-50
2021/01/19 06:39:03;;;;;;;28.00;21.13;;;4.30;99.90;;;;;;5024274;28;20902;-49
2021/01/19 06:43:35;;;;;;;30.00;21.47;;;4.30;99.90;;;;;;5013654;28;20450;-49
2021/01/19 06:48:10;;;;;;;28.00;22.53;;;4.30;99.90;;;;;;4987652;28;20467;-49
2021/01/19 06:51:55;;;;;;;26.17;21.53;;;4.30;99.90;;;;;;5003777;28;20455;-49
2021/01/19 06:54:27;;;;;;;28.53;21.37;;;4.30;99.90;;;;;;5010797;28;20824;-50
2021/01/19 06:57:17;;;;;;;26.50;20.47;;;4.30;99.90;;;;;;5024521;28;20922;-49
2021/01/19 06:59:58;;;;;;;28.13;21.40;;;4.30;99.90;;;;;;5005849;28;20552;-49
2021/01/19 07:02:34;;;;;;;25.90;21.33;;;4.30;99.90;;;;;;5004217;28;20494;-49
2021/01/19 07:05:10;;;;;;;24.97;21.57;;;4.30;99.90;;;;;;5008793;28;20482;-49
2021/01/19 07:07:43;;;;;;;24.77;19.60;;;4.30;99.90;;;;;;5008890;28;20971;-49
2021/01/19 07:10:16;;;;;;;25.33;19.93;;;4.30;99.90;;;;;;5008763;28;20636;-49
2021/01/19 07:13:03;;;;;;;25.47;18.00;;;4.30;99.90;;;;;;5008346;28;20485;-49
2021/01/19 07:16:07;;;;;;;26.77;19.33;;;4.30;99.90;;;;;;5008281;28;20478;-50
2021/01/19 07:19:07;;;;;;;24.37;18.10;;;4.30;99.90;;;;;;5008082;28;20478;-49
2021/01/19 07:22:07;;;;;;;24.47;18.63;;;4.30;99.90;;;;;;5011031;28;20546;-50
2021/01/19 07:24:41;;;;;;;23.37;16.97;;;4.30;99.90;;;;;;5007668;28;20485;-49
2021/01/19 07:27:11;;;;;;;29.03;17.30;;;4.30;99.90;;;;;;4998459;28;20471;-49
2021/01/19 07:29:38;;;;;;;23.53;16.83;;;4.30;99.90;;;;;;5008524;28;20481;-49
2021/01/19 07:32:10;;;;;;;24.07;16.90;;;4.30;99.90;;;;;;5009989;28;20503;-49
2021/01/19 07:34:40;;;;;;;23.60;16.47;;;4.30;99.90;;;;;;5014235;28;20485;-49
2021/01/19 07:37:08;;;;;;;22.60;16.20;;;4.30;99.90;;;;;;5008569;28;20478;-50
2021/01/19 07:39:37;;;;;;;19.80;15.30;;;4.30;99.90;;;;;;5008514;28;20996;-50
2021/01/19 07:42:12;;;;;;;20.37;14.33;;;4.20;99.90;;;;;;5008035;28;20566;-49
2021/01/19 07:44:42;;;;;;;18.77;13.00;;;4.20;99.90;;;;;;5008529;28;20486;-49
2021/01/19 07:47:13;;;;;;;18.97;14.17;;;4.20;99.90;;;;;;5001122;28;20499;-49
2021/01/19 07:50:54;;;;;;;19.27;13.33;;;4.30;99.90;;;;;;5001025;28;20482;-50
2021/01/19 07:53:48;;;;;;;17.00;12.97;;;4.30;99.90;;;;;;5018384;28;20461;-49
2021/01/19 07:56:24;;;;;;;18.07;13.30;;;4.20;99.90;;;;;;5008422;28;20481;-50
2021/01/19 07:58:54;;;;;;;19.17;13.57;;;4.20;99.90;;;;;;5008086;28;20534;-49
2021/01/19 08:01:26;;;;;;;15.53;12.63;;;4.20;99.90;;;;;;5008055;28;20484;-51
2021/01/19 08:03:55;;;;;;;15.90;11.93;;;4.20;99.90;;;;;;5008048;28;20490;-50
2021/01/19 08:06:32;;;;;;;15.40;11.77;;;4.20;99.90;;;;;;5008196;28;20997;-49
2021/01/19 08:09:11;;;;;;;13.53;12.13;;;4.30;99.90;;;;;;5007773;28;20487;-49
2021/01/19 08:11:40;;;;;;;13.80;11.13;;;4.30;99.90;;;;;;5008278;28;20498;-50
2021/01/19 08:14:15;;;;;;;13.10;10.77;;;4.30;99.90;;;;;;5006912;28;20486;-50
2021/01/19 08:16:48;;;;;;;11.07;9.57;;;4.30;99.90;;;;;;5007880;28;20571;-52
2021/01/19 08:19:17;;;;;;;10.80;9.67;;;4.30;99.90;;;;;;5008017;28;20530;-49
2021/01/19 08:21:50;;;;;;;12.37;9.27;;;4.30;99.90;;;;;;5007165;28;21057;-50
2021/01/19 08:24:21;;;;;;;12.27;9.20;;;4.30;99.90;;;;;;5007778;28;20527;-50
2021/01/19 08:26:50;;;;;;;12.23;8.90;;;4.30;99.90;;;;;;5007608;28;20534;-49
2021/01/19 08:29:30;;;;;;;12.73;9.30;;;4.30;99.90;;;;;;5007698;28;20577;-50
2021/01/19 08:32:00;;;;;;;10.80;9.23;;;4.20;99.90;;;;;;5007075;28;20479;-49
2021/01/19 08:34:30;;;;;;;11.23;9.20;;;4.20;99.90;;;;;;5004723;28;20533;-49
2021/01/19 08:37:02;;;;;;;11.57;8.80;;;4.20;99.90;;;;;;5006983;28;20502;-50
2021/01/19 08:39:30;;;;;;;12.70;10.73;;;4.20;99.90;;;;;;5007331;28;20482;-49
2021/01/19 08:41:58;;;;;;;13.53;9.50;;;4.30;99.90;;;;;;5007027;28;21292;-49
2021/01/19 08:44:35;;;;;;;13.37;9.70;;;4.30;99.90;;;;;;5003300;28;20475;-50
2021/01/19 08:47:03;;;;;;;13.50;9.73;;;4.30;99.90;;;;;;5008173;28;20486;-50
2021/01/19 08:49:35;;;;;;;11.27;10.03;;;4.30;99.90;;;;;;5002098;28;21051;-50
2021/01/19 08:52:03;;;;;;;12.47;9.97;;;4.30;99.90;;;;;;5005210;28;20973;-50
2021/01/19 08:54:31;;;;;;;11.47;9.43;;;4.30;99.90;;;;;;5006538;28;20483;-50
2021/01/19 08:56:59;;;;;;;11.57;10.37;;;4.30;99.90;;;;;;5006232;28;20472;-50
2021/01/19 08:59:51;;;;;;;13.20;10.13;;;4.30;99.90;;;;;;5005331;28;20515;-51
2021/01/19 09:02:19;;;;;;;11.57;9.70;;;4.30;99.90;;;;;;5004873;28;21002;-51
2021/01/19 09:04:46;;;;;;;13.77;10.53;;;4.30;99.90;;;;;;5006254;28;20923;-49
2021/01/19 09:07:14;;;;;;;13.97;10.67;;;4.30;99.90;;;;;;5005793;28;20629;-49
2021/01/19 09:09:46;;;;;;;12.63;10.53;;;4.30;99.90;;;;;;4996216;28;21037;-50
2021/01/19 09:12:17;;;;;;;10.90;9.70;;;4.40;99.90;;;;;;4995158;28;20580;-49
2021/01/19 09:14:51;;;;;;;11.27;10.03;;;4.30;99.90;;;;;;4996516;28;20889;-49
2021/01/19 09:17:25;;;;;;;13.03;10.07;;;4.30;99.90;;;;;;4995680;28;20953;-50
2021/01/19 09:20:05;;;;;;;11.07;9.00;;;4.30;99.90;;;;;;4990224;28;20510;-50
2021/01/19 09:22:32;;;;;;;11.43;9.70;;;4.30;99.90;;;;;;5009228;28;20486;-50
2021/01/19 09:25:00;;;;;;;9.83;8.83;;;4.30;99.90;;;;;;5000564;28;20479;-50
2021/01/19 09:27:27;;;;;;;10.47;9.37;;;4.30;99.90;;;;;;4995674;28;20963;-49
2021/01/19 09:30:07;;;;;;;10.17;9.10;;;4.30;99.90;;;;;;4996165;28;20546;-49
2021/01/19 09:32:38;;;;;;;10.57;9.37;;;4.30;99.90;;;;;;5009783;28;20475;-49
2021/01/19 09:35:08;;;;;;;10.57;9.37;;;4.40;99.90;;;;;;4996474;28;20669;-49
2021/01/19 09:37:35;;;;;;;9.70;8.70;;;4.40;99.90;;;;;;4997213;28;20479;-49
2021/01/19 09:40:04;;;;;;;9.97;8.87;;;4.40;99.90;;;;;;4995313;28;20931;-49
2021/01/19 09:42:32;;;;;;;9.87;8.40;;;4.40;99.90;;;;;;4999103;28;20462;-49
2021/01/19 09:45:00;;;;;;;9.87;8.50;;;4.40;99.90;;;;;;4998666;28;20583;-49
2021/01/19 09:47:30;;;;;;;12.20;8.97;;;4.40;99.90;;;;;;5004698;28;20509;-49
2021/01/19 09:49:58;;;;;;;10.03;8.97;;;4.40;99.90;;;;;;4998923;28;20512;-49
2021/01/19 09:52:31;;;;;;;9.93;8.50;;;4.40;99.90;;;;;;4995597;28;21008;-51
2021/01/19 09:55:12;;;;;;;10.30;8.37;;;4.40;99.90;;;;;;5003539;28;20480;-49
2021/01/19 09:57:40;;;;;;;9.60;8.60;;;4.40;99.90;;;;;;5006221;28;20524;-51
2021/01/19 10:00:11;;;;;;;9.30;8.30;;;4.40;99.90;;;;;;5006004;28;21354;-50
2021/01/19 10:02:42;;;;;;;9.93;8.87;;;4.50;99.90;;;;;;5004575;28;20480;-49
2021/01/19 10:05:10;;;;;;;10.77;9.07;;;4.50;99.90;;;;;;5006263;28;20476;-49
2021/01/19 10:07:38;;;;;;;9.63;8.63;;;4.50;99.90;;;;;;5006290;28;20567;-49
2021/01/19 10:10:11;;;;;;;10.47;8.33;;;4.50;99.90;;;;;;5005488;28;20571;-50
2021/01/19 10:12:39;;;;;;;9.93;7.80;;;4.50;99.90;;;;;;5005565;28;20860;-49
2021/01/19 10:15:08;;;;;;;8.80;7.83;;;4.50;99.90;;;;;;5005988;28;20483;-49
2021/01/19 10:17:37;;;;;;;10.53;8.90;;;4.50;99.90;;;;;;5005878;28;20506;-50
2021/01/19 10:20:10;;;;;;;8.87;7.97;;;4.50;99.90;;;;;;5005570;28;20694;-49
2021/01/19 10:22:41;;;;;;;9.80;8.10;;;4.50;99.90;;;;;;5005376;28;20805;-50
2021/01/19 10:25:11;;;;;;;11.07;9.23;;;4.50;99.90;;;;;;5005835;28;20329;-49
2021/01/19 10:27:43;;;;;;;11.00;8.63;;;4.60;99.90;;;;;;5005624;28;20941;-49
2021/01/19 10:30:15;;;;;;;11.13;8.47;;;4.60;99.90;;;;;;5005728;28;20475;-49
2021/01/19 10:32:48;;;;;;;11.43;8.90;;;4.60;99.90;;;;;;5004916;28;20331;-49
2021/01/19 10:35:30;;;;;;;11.33;8.97;;;4.60;99.90;;;;;;5005685;28;20880;-49
2021/01/19 10:38:00;;;;;;;10.10;8.43;;;4.70;99.90;;;;;;5004186;28;20529;-49
2021/01/19 10:40:29;;;;;;;10.10;9.03;;;4.70;99.90;;;;;;5008707;28;20483;-49
2021/01/19 10:43:00;;;;;;;10.40;9.27;;;4.70;99.90;;;;;;5003263;28;20503;-50
2021/01/19 10:45:32;;;;;;;9.77;8.77;;;4.70;99.90;;;;;;5009333;28;21086;-49
2021/01/19 10:48:01;;;;;;;11.03;8.90;;;4.70;99.90;;;;;;5016263;28;20770;-49
2021/01/19 10:50:31;;;;;;;12.07;9.47;;;4.70;99.90;;;;;;5005053;28;20476;-49
2021/01/19 10:53:01;;;;;;;12.83;8.90;;;4.80;99.90;;;;;;4999595;28;20491;-50
2021/01/19 10:55:33;;;;;;;11.30;9.00;;;4.80;99.90;;;;;;5005167;28;20843;-51
2021/01/19 10:58:03;;;;;;;9.83;8.83;;;4.80;99.90;;;;;;5004357;28;20682;-49
2021/01/19 11:00:33;;;;;;;10.30;9.13;;;4.80;99.90;;;;;;5004433;28;20307;-49
2021/01/19 11:03:01;;;;;;;12.50;9.93;;;4.80;99.90;;;;;;5004255;28;20835;-49
2021/01/19 11:05:30;;;;;;;10.27;9.17;;;4.80;99.90;;;;;;5004502;28;20485;-50
2021/01/19 11:07:57;;;;;;;12.80;10.17;;;4.90;99.90;;;;;;4999019;28;20565;-49
2021/01/19 11:10:26;;;;;;;12.23;11.03;;;4.90;99.90;;;;;;4985059;28;20562;-49
2021/01/19 11:12:55;;;;;;;10.53;9.43;;;4.90;99.90;;;;;;4996758;28;20533;-50
2021/01/19 11:15:23;;;;;;;10.97;9.47;;;4.90;99.90;;;;;;5000044;28;20475;-49
2021/01/19 11:17:52;;;;;;;10.63;9.53;;;4.90;99.90;;;;;;5006472;28;20528;-51
2021/01/19 11:20:20;;;;;;;11.10;9.90;;;4.90;99.90;;;;;;5003680;28;20574;-51
2021/01/19 11:22:49;;;;;;;10.27;9.00;;;5.00;99.90;;;;;;5002654;28;20824;-50
2021/01/19 11:25:17;;;;;;;9.63;8.63;;;5.00;99.90;;;;;;5002500;28;20483;-49
2021/01/19 11:27:49;;;;;;;10.57;9.57;;;5.00;99.90;;;;;;4990870;28;20236;-50
2021/01/19 11:30:17;;;;;;;10.77;9.70;;;5.00;99.90;;;;;;4995110;28;20568;-50
2021/01/19 11:32:45;;;;;;;10.27;9.27;;;5.00;99.90;;;;;;5003973;28;20675;-50
2021/01/19 11:35:13;;;;;;;10.87;9.87;;;5.10;99.90;;;;;;5004925;28;20480;-50
2021/01/19 11:37:40;;;;;;;11.27;10.23;;;5.10;99.90;;;;;;5004849;28;20494;-50
2021/01/19 11:40:09;;;;;;;11.23;10.10;;;5.10;99.90;;;;;;5004479;28;20474;-50
2021/01/19 11:42:36;;;;;;;10.53;9.53;;;5.10;99.90;;;;;;5009863;28;21085;-50
2021/01/19 11:45:06;;;;;;;10.73;9.73;;;5.10;99.90;;;;;;5007881;28;20570;-51
2021/01/19 11:47:33;;;;;;;10.73;9.73;;;5.10;99.90;;;;;;5004818;28;20617;-50
2021/01/19 11:50:01;;;;;;;10.47;9.37;;;5.10;99.90;;;;;;5005978;28;20493;-52
2021/01/19 11:52:28;;;;;;;11.67;10.47;;;5.10;99.90;;;;;;5007326;28;20486;-50
2021/01/19 11:54:55;;;;;;;10.07;9.10;;;5.20;99.90;;;;;;5001758;28;20552;-50
2021/01/19 11:57:24;;;;;;;9.80;8.80;;;5.20;99.90;;;;;;4998779;28;20492;-51
2021/01/19 11:59:51;;;;;;;11.17;10.03;;;5.20;99.90;;;;;;4998382;28;20505;-50
2021/01/19 12:02:18;;;;;;;14.40;11.67;;;5.20;99.90;;;;;;4995901;28;20256;-50
2021/01/19 12:04:46;;;;;;;13.87;12.17;;;5.20;99.90;;;;;;4998772;28;20507;-50
2021/01/19 12:07:13;;;;;;;14.20;11.97;;;5.20;99.90;;;;;;4998150;28;20552;-50
2021/01/19 12:09:41;;;;;;;10.80;9.70;;;5.20;99.90;;;;;;4996934;28;20979;-50
2021/01/19 12:12:08;;;;;;;10.90;9.80;;;5.30;99.90;;;;;;4997569;28;20756;-50
2021/01/19 12:14:37;;;;;;;10.70;9.57;;;5.20;99.90;;;;;;4985521;28;20479;-50
2021/01/19 12:17:05;;;;;;;11.13;10.03;;;5.20;99.90;;;;;;4980681;28;20236;-50
2021/01/19 12:19:33;;;;;;;10.87;9.87;;;5.20;99.90;;;;;;4987181;28;20729;-50
2021/01/19 12:22:01;;;;;;;11.30;10.20;;;5.30;99.90;;;;;;4986254;28;20519;-49
2021/01/19 12:24:30;;;;;;;10.70;9.67;;;5.30;99.90;;;;;;4986546;28;20749;-50
2021/01/19 12:26:58;;;;;;;11.77;10.57;;;5.40;99.90;;;;;;4986804;28;20244;-50
2021/01/19 12:29:27;;;;;;;11.07;9.50;;;5.30;99.90;;;;;;4987523;28;20347;-50
2021/01/19 12:32:02;;;;;;;12.13;10.93;;;5.30;99.90;;;;;;4987495;28;20563;-50
2021/01/19 12:34:29;;;;;;;11.60;10.37;;;5.40;99.90;;;;;;4995949;28;20477;-51
2021/01/19 12:36:57;;;;;;;11.60;10.40;;;5.40;99.90;;;;;;5013571;28;20479;-50
2021/01/19 12:39:24;;;;;;;10.97;9.93;;;5.40;99.90;;;;;;5005148;28;20516;-50
2021/01/19 12:41:51;;;;;;;11.43;10.23;;;5.40;99.90;;;;;;5012068;28;20487;-49
2021/01/19 12:44:19;;;;;;;10.73;9.73;;;5.40;99.90;;;;;;5016702;28;20472;-51
2021/01/19 12:46:46;;;;;;;13.13;11.20;;;5.40;99.90;;;;;;5007138;28;20482;-50
2021/01/19 12:49:15;;;;;;;13.40;10.87;;;5.40;99.90;;;;;;5003277;28;20479;-49
2021/01/19 12:51:42;;;;;;;12.07;10.87;;;5.40;99.90;;;;;;4993495;28;20314;-50
2021/01/19 12:54:10;;;;;;;11.77;10.57;;;5.40;99.90;;;;;;4995436;28;21446;-51
2021/01/19 12:56:39;;;;;;;11.63;10.53;;;5.50;99.90;;;;;;4995598;28;20237;-50
2021/01/19 12:59:06;;;;;;;12.37;11.00;;;5.40;99.90;;;;;;4993760;28;20258;-50
2021/01/19 13:01:34;;;;;;;12.07;10.97;;;5.50;99.90;;;;;;4994759;28;20245;-50
2021/01/19 13:04:02;;;;;;;12.53;11.30;;;5.50;99.90;;;;;;4995268;28;20236;-50
2021/01/19 13:06:30;;;;;;;11.93;10.83;;;5.50;99.90;;;;;;4996057;28;20940;-52
2021/01/19 13:08:58;;;;;;;13.20;11.90;;;5.50;99.90;;;;;;4994392;28;21031;-50